Time;durP1;ratioP1;P1;durP2;ratioP2;P2;SDS_P1;SDS_P2;PMS_P1;PMS_P2;Temp;Humidity;BMP_temperature;BMP_pressure;BME280_temperature;BME280_humidity;BME280_pressure;Samples;Min_cycle;Max_cycle;Signal;HPM_P1;HPM_P2
2023/01/31 00:00:03;;;;;;;1.63;1.23;;;;;;;20.66;34.04;102153.94;5052510;28;20721;-68
2023/01/31 00:02:30;;;;;;;2.17;1.27;;;;;;;20.60;34.02;102148.41;5049113;28;20594;-68
2023/01/31 00:04:55;;;;;;;1.15;1.05;;;;;;;20.51;34.05;102147.50;5053195;28;20044;-68
2023/01/31 00:07:21;;;;;;;1.15;1.05;;;;;;;20.44;34.13;102141.16;5066523;28;20089;-68
2023/01/31 00:09:46;;;;;;;1.85;1.08;;;;;;;20.42;34.09;102138.66;5056276;28;20044;-68
2023/01/31 00:12:12;;;;;;;2.38;1.45;;;;;;;20.46;33.80;102142.66;5060112;28;20063;-68
2023/01/31 00:14:37;;;;;;;2.25;1.00;;;;;;;20.38;34.00;102142.56;5059807;28;20047;-68
2023/01/31 00:17:03;;;;;;;2.33;1.40;;;;;;;20.34;34.07;102151.78;5062798;28;20079;-68
2023/01/31 00:19:28;;;;;;;1.23;0.90;;;;;;;20.30;34.11;102145.16;5056512;28;20036;-68
2023/01/31 00:21:54;;;;;;;1.88;1.00;;;;;;;20.23;34.19;102150.19;5061970;28;20383;-68
2023/01/31 00:24:19;;;;;;;2.58;1.25;;;;;;;20.17;34.36;102144.69;5056424;28;20044;-68
2023/01/31 00:26:47;;;;;;;1.15;0.90;;;;;;;20.09;34.38;102140.13;5062908;28;20041;-68
2023/01/31 00:29:12;;;;;;;1.67;1.23;;;;;;;20.15;34.32;102128.97;5059026;28;20044;-68
2023/01/31 00:31:38;;;;;;;2.65;1.27;;;;;;;20.16;34.30;102138.56;5063148;28;20078;-68
2023/01/31 00:34:04;;;;;;;1.52;1.05;;;;;;;20.02;34.58;102140.88;5061268;28;20032;-68
2023/01/31 00:36:32;;;;;;;1.63;1.23;;;;;;;20.04;34.52;102144.19;5063753;28;20048;-68
2023/01/31 00:38:59;;;;;;;1.30;1.20;;;;;;;20.09;34.48;102134.81;5065735;28;20593;-68
2023/01/31 00:41:28;;;;;;;1.80;1.15;;;;;;;20.11;34.39;102135.53;5059898;28;20120;-68
2023/01/31 00:43:54;;;;;;;2.78;1.30;;;;;;;20.05;34.42;102133.47;5062785;28;20417;-68
2023/01/31 00:46:20;;;;;;;1.17;1.00;;;;;;;20.05;34.43;102125.53;5058626;28;20043;-68
2023/01/31 00:48:47;;;;;;;1.00;0.88;;;;;;;20.00;34.63;102127.81;5060000;28;20793;-68
2023/01/31 00:51:13;;;;;;;1.48;1.15;;;;;;;19.98;34.55;102127.13;5064654;28;20035;-68
2023/01/31 00:53:39;;;;;;;1.52;1.00;;;;;;;19.97;34.58;102129.94;5067391;28;20095;-68
2023/01/31 00:56:08;;;;;;;2.05;1.17;;;;;;;19.88;34.84;102129.81;5054320;28;20044;-68
2023/01/31 00:58:35;;;;;;;1.35;1.02;;;;;;;19.94;34.71;102124.94;5066275;28;20048;-68
2023/01/31 01:01:22;;;;;;;2.60;1.30;;;;;;;19.87;34.70;102125.50;5069910;28;20068;-68
2023/01/31 01:03:49;;;;;;;1.48;1.17;;;;;;;19.85;34.74;102124.84;5059038;28;20541;-68
2023/01/31 01:06:15;;;;;;;2.03;1.20;;;;;;;19.85;34.80;102122.19;5060116;28;20029;-68
2023/01/31 01:08:42;;;;;;;1.30;1.08;;;;;;;19.84;34.79;102132.91;5055522;28;20405;-68
2023/01/31 01:11:16;;;;;;;1.98;1.23;;;;;;;19.86;34.69;102123.03;5056729;28;20047;-68
2023/01/31 01:13:42;;;;;;;1.20;0.95;;;;;;;19.73;34.96;102126.00;5063000;28;20183;-68
2023/01/31 01:16:20;;;;;;;1.95;1.20;;;;;;;19.72;34.96;102134.91;5058355;28;20478;-68
2023/01/31 01:18:48;;;;;;;1.85;1.23;;;;;;;19.70;35.13;102138.69;5079580;28;20032;-68
2023/01/31 01:21:26;;;;;;;1.55;1.30;;;;;;;19.83;34.70;102133.91;5068783;28;20036;-68
2023/01/31 01:23:54;;;;;;;2.33;1.33;;;;;;;19.73;35.02;102143.69;5063593;28;20044;-68
2023/01/31 01:26:32;;;;;;;3.08;1.48;;;;;;;19.73;35.04;102147.16;5064319;28;20029;-68
2023/01/31 01:28:59;;;;;;;1.92;1.33;;;;;;;19.77;34.82;102148.56;5064154;28;20190;-68
2023/01/31 01:31:31;;;;;;;2.13;1.30;;;;;;;19.71;34.99;102146.47;5063669;28;20629;-68
2023/01/31 01:33:59;;;;;;;1.05;0.82;;;;;;;19.70;35.06;102155.38;5068290;28;20036;-68
2023/01/31 01:36:25;;;;;;;2.78;1.30;;;;;;;19.67;35.16;102154.84;5058405;28;20398;-68
2023/01/31 01:38:51;;;;;;;1.02;0.88;;;;;;;19.65;35.51;102154.16;5043459;28;20044;-68
2023/01/31 01:41:17;;;;;;;1.58;1.00;;;;;;;19.63;35.13;102158.78;5056646;28;20487;-68
2023/01/31 01:43:42;;;;;;;1.42;1.02;;;;;;;19.61;35.07;102151.81;5061868;28;20040;-68
2023/01/31 01:46:14;;;;;;;2.03;1.15;;;;;;;19.68;35.19;102149.41;5059083;28;20036;-68
2023/01/31 01:48:40;;;;;;;;;;;;;;;19.67;35.09;102139.00;5059563;28;20352;-68
2023/01/31 01:51:06;;;;;;;1.58;1.27;;;;;;;19.65;35.29;102133.84;5058748;28;19967;-68
2023/01/31 01:53:37;;;;;;;1.05;0.80;;;;;;;19.56;35.42;102130.25;5060445;28;20600;-68
2023/01/31 01:56:09;;;;;;;1.80;1.23;;;;;;;19.55;35.44;102131.25;5061929;28;20597;-68
2023/01/31 01:59:02;;;;;;;1.95;0.82;;;;;;;19.58;35.24;102130.97;5058361;28;20024;-68
2023/01/31 02:01:33;;;;;;;1.17;0.95;;;;;;;19.60;35.19;102125.53;5051566;28;20571;-68
2023/01/31 02:03:59;;;;;;;1.17;0.82;;;;;;;19.47;35.49;102117.91;5062417;28;20072;-68
2023/01/31 02:06:25;;;;;;;1.15;0.82;;;;;;;19.47;35.49;102107.34;5053899;28;20095;-68
2023/01/31 02:08:52;;;;;;;1.17;0.90;;;;;;;19.48;35.44;102116.09;5063101;28;20048;-68
2023/01/31 02:11:23;;;;;;;1.08;0.80;;;;;;;19.48;35.51;102109.00;5058866;28;20029;-68
2023/01/31 02:13:52;;;;;;;1.13;0.88;;;;;;;19.48;35.41;102106.38;5061408;28;20052;-68
2023/01/31 02:16:18;;;;;;;1.90;1.30;;;;;;;19.47;35.40;102098.59;5056333;28;20029;-68
2023/01/31 02:18:44;;;;;;;1.35;1.02;;;;;;;19.51;35.47;102102.59;5059214;28;20425;-68
2023/01/31 02:21:47;;;;;;;1.50;1.00;;;;;;;19.47;35.52;102095.94;5059114;28;20032;-68
2023/01/31 02:24:36;;;;;;;1.50;1.23;;;;;;;19.39;35.67;102091.41;5061399;28;20114;-68
2023/01/31 02:27:10;;;;;;;1.55;1.08;;;;;;;19.51;35.53;102099.97;5062598;28;20052;-68
2023/01/31 02:30:06;;;;;;;0.82;0.60;;;;;;;19.46;35.51;102089.84;5059598;28;20032;-68
2023/01/31 02:32:52;;;;;;;1.23;0.95;;;;;;;19.38;35.78;102096.81;5061379;28;20028;-68
2023/01/31 02:35:40;;;;;;;2.03;1.08;;;;;;;19.36;35.79;102094.31;5043978;28;20072;-68
2023/01/31 02:38:29;;;;;;;1.55;1.02;;;;;;;19.36;35.66;102081.13;5059620;28;20047;-68
2023/01/31 02:41:25;;;;;;;1.17;0.80;;;;;;;19.33;35.80;102086.69;5062746;28;20068;-68
2023/01/31 02:46:59;;;;;;;1.30;1.02;;;;;;;19.31;35.90;102073.63;5086214;28;20040;-68
2023/01/31 02:49:49;;;;;;;0.75;0.60;;;;;;;19.37;35.78;102068.75;5056534;28;20029;-68
2023/01/31 02:52:55;;;;;;;1.95;1.08;;;;;;;19.28;35.93;102076.56;5060458;28;20068;-68
2023/01/31 02:58:19;;;;;;;1.77;1.08;;;;;;;19.30;35.85;102057.94;5068771;28;20036;-68
2023/01/31 03:00:46;;;;;;;1.02;0.80;;;;;;;19.23;35.92;102055.06;5062894;28;20356;-68
2023/01/31 03:03:19;;;;;;;1.77;0.90;;;;;;;19.31;35.88;102075.44;5052484;28;20652;-68
2023/01/31 03:06:25;;;;;;;1.63;1.08;;;;;;;19.29;35.93;102070.31;5062408;28;20071;-68
2023/01/31 03:09:01;;;;;;;1.52;0.95;;;;;;;19.23;35.79;102070.06;5030143;28;20045;-68
2023/01/31 03:12:02;;;;;;;1.30;0.80;;;;;;;19.29;35.81;102062.38;5056908;28;20041;-68
2023/01/31 03:14:34;;;;;;;1.33;1.23;;;;;;;19.26;36.04;102070.59;5051616;28;20040;-68
2023/01/31 03:17:31;;;;;;;1.52;1.27;;;;;;;19.19;36.26;102064.22;5061161;28;20032;-68
2023/01/31 03:20:21;;;;;;;1.38;1.05;;;;;;;19.26;35.83;102061.84;5060856;28;20037;-68
2023/01/31 03:22:59;;;;;;;1.23;1.08;;;;;;;19.30;35.82;102055.28;5059713;28;20088;-68
2023/01/31 03:25:29;;;;;;;1.63;0.82;;;;;;;19.20;35.95;102050.03;5057337;28;20106;-68
2023/01/31 03:28:01;;;;;;;1.20;0.90;;;;;;;19.18;36.04;102046.72;5057930;28;20066;-68
2023/01/31 03:30:38;;;;;;;0.93;0.93;;;;;;;19.26;35.93;102038.91;5056961;28;20057;-68
2023/01/31 03:33:12;;;;;;;1.58;0.77;;;;;;;19.23;35.83;102043.66;5056606;28;20119;-68
2023/01/31 03:35:41;;;;;;;1.20;0.73;;;;;;;19.23;35.89;102028.66;5059974;28;20033;-68
2023/01/31 03:38:15;;;;;;;1.45;0.93;;;;;;;19.16;36.06;102021.44;5050546;28;20167;-68
2023/01/31 03:40:51;;;;;;;1.23;0.90;;;;;;;19.12;36.25;102018.28;5062125;28;20025;-68
2023/01/31 03:43:26;;;;;;;1.65;0.98;;;;;;;19.17;36.11;102018.66;5064099;28;20847;-68
2023/01/31 03:46:03;;;;;;;1.48;0.95;;;;;;;19.17;35.98;102008.09;5059496;28;20040;-68
2023/01/31 03:48:34;;;;;;;0.95;0.80;;;;;;;19.19;36.09;102008.78;5053287;28;20120;-68
2023/01/31 03:51:05;;;;;;;1.10;0.75;;;;;;;19.21;36.03;102000.69;5063903;28;20032;-68
2023/01/31 03:53:53;;;;;;;1.58;1.10;;;;;;;19.27;35.75;101993.03;5063580;28;20059;-68
2023/01/31 03:56:36;;;;;;;1.58;1.00;;;;;;;19.17;36.14;101994.06;5080976;28;20576;-68
2023/01/31 03:59:16;;;;;;;1.67;0.82;;;;;;;19.19;36.19;101986.81;5064259;28;20037;-68
2023/01/31 04:01:47;;;;;;;1.67;0.70;;;;;;;19.16;36.18;101993.22;5062684;28;20037;-68
2023/01/31 04:04:53;;;;;;;1.55;1.15;;;;;;;19.13;36.22;101998.81;5057154;28;20115;-68
2023/01/31 04:07:19;;;;;;;1.52;0.98;;;;;;;19.19;36.11;101985.00;5059278;28;20028;-68
2023/01/31 04:09:45;;;;;;;1.20;0.73;;;;;;;19.13;36.21;101993.53;5058295;28;20020;-68
2023/01/31 04:12:12;;;;;;;1.70;1.00;;;;;;;19.09;36.18;101989.53;5061771;28;20052;-68
2023/01/31 04:14:38;;;;;;;1.67;1.00;;;;;;;19.13;36.23;101984.78;5066200;28;20036;-68
2023/01/31 04:17:03;;;;;;;2.05;0.70;;;;;;;19.11;35.99;101971.72;5063013;28;20143;-68
2023/01/31 04:19:29;;;;;;;0.90;0.82;;;;;;;19.13;36.09;101988.25;5059013;28;20098;-68
2023/01/31 04:21:54;;;;;;;1.33;0.82;;;;;;;19.12;36.20;101986.59;5064155;28;20059;-68
2023/01/31 04:24:20;;;;;;;1.48;0.82;;;;;;;19.10;36.27;101979.81;5063147;28;20040;-68
2023/01/31 04:26:46;;;;;;;1.38;0.90;;;;;;;19.05;36.32;101977.59;5063744;28;20044;-68
2023/01/31 04:29:12;;;;;;;1.40;0.98;;;;;;;19.10;36.34;101972.72;5060182;28;20499;-68
2023/01/31 04:31:38;;;;;;;1.45;0.70;;;;;;;19.12;36.13;101972.56;5056378;28;20491;-68
2023/01/31 04:34:04;;;;;;;1.75;1.05;;;;;;;19.07;36.35;101961.63;5059138;28;20091;-68
2023/01/31 04:36:30;;;;;;;1.38;0.95;;;;;;;19.06;36.37;101954.69;5064994;28;20048;-68
2023/01/31 04:38:55;;;;;;;1.88;1.23;;;;;;;19.04;36.43;101957.47;5063097;28;20038;-68
2023/01/31 04:41:21;;;;;;;2.05;0.98;;;;;;;19.06;36.40;101952.88;5059945;28;20445;-68
2023/01/31 04:43:46;;;;;;;0.93;0.80;;;;;;;19.09;36.27;101955.22;5060200;28;20040;-68
2023/01/31 04:46:12;;;;;;;1.20;0.82;;;;;;;19.06;36.19;101949.41;5059166;28;20048;-68
2023/01/31 04:48:39;;;;;;;1.00;0.85;;;;;;;19.06;36.42;101952.03;5068847;28;20067;-68
2023/01/31 04:51:04;;;;;;;1.42;0.95;;;;;;;19.06;36.28;101939.66;5060456;28;20072;-68
2023/01/31 04:53:30;;;;;;;0.50;0.50;;;;;;;18.95;36.46;101945.13;5061717;28;20128;-68
2023/01/31 04:55:55;;;;;;;1.58;0.90;;;;;;;19.00;36.50;101941.06;5059153;28;20044;-68
2023/01/31 04:58:22;;;;;;;1.55;1.08;;;;;;;19.07;36.25;101943.13;5066938;28;20142;-68
2023/01/31 05:00:47;;;;;;;1.08;0.90;;;;;;;19.02;36.44;101933.00;5058792;28;20059;-68
2023/01/31 05:03:13;;;;;;;1.95;1.15;;;;;;;18.98;36.47;101927.19;5061524;28;20039;-68
2023/01/31 05:05:38;;;;;;;1.10;1.00;;;;;;;19.06;36.40;101917.72;5048799;28;20044;-68
2023/01/31 05:08:04;;;;;;;0.82;0.65;;;;;;;19.05;36.55;101924.81;5050595;28;20105;-68
2023/01/31 05:10:30;;;;;;;2.00;0.90;;;;;;;19.08;36.31;101926.31;5065695;28;20079;-68
2023/01/31 05:12:55;;;;;;;1.95;0.90;;;;;;;19.07;36.42;101920.22;5066933;28;20102;-68
2023/01/31 05:15:21;;;;;;;1.38;0.88;;;;;;;19.01;36.49;101920.78;5064743;28;20041;-68
2023/01/31 05:18:01;;;;;;;1.05;0.75;;;;;;;19.00;36.55;101917.31;5063922;28;20036;-68
2023/01/31 05:20:35;;;;;;;1.73;1.13;;;;;;;18.99;36.43;101914.81;5060117;28;20185;-68
2023/01/31 05:23:00;;;;;;;1.35;1.08;;;;;;;19.00;36.55;101908.56;5058251;28;20063;-68
2023/01/31 05:25:26;;;;;;;1.38;1.00;;;;;;;19.05;36.34;101919.53;5064489;28;20935;-68
2023/01/31 05:27:52;;;;;;;1.33;1.02;;;;;;;18.99;36.43;101915.66;5061549;28;20053;-68
2023/01/31 05:30:18;;;;;;;1.10;1.00;;;;;;;18.97;36.54;101908.84;5059810;28;20115;-68
2023/01/31 05:32:44;;;;;;;1.17;0.88;;;;;;;18.94;36.66;101906.53;5063094;28;20571;-67
2023/01/31 05:35:11;;;;;;;1.52;0.85;;;;;;;18.89;36.50;101906.97;5058019;28;20493;-67
2023/01/31 05:37:36;;;;;;;0.65;0.60;;;;;;;18.89;36.72;101899.06;5058352;28;20045;-68
2023/01/31 05:40:02;;;;;;;0.88;0.88;;;;;;;18.89;36.57;101898.22;5058604;28;20044;-68
2023/01/31 05:42:28;;;;;;;1.30;1.10;;;;;;;18.84;36.90;101884.63;5056546;28;20041;-68
2023/01/31 05:44:53;;;;;;;1.63;0.82;;;;;;;18.87;36.57;101884.34;5058060;28;20513;-68
2023/01/31 05:47:19;;;;;;;1.20;0.95;;;;;;;18.84;36.78;101876.69;5062944;28;20044;-68
2023/01/31 05:49:44;;;;;;;1.40;0.90;;;;;;;18.83;36.70;101873.22;5058391;28;20037;-68
2023/01/31 05:52:10;;;;;;;1.55;1.10;;;;;;;18.82;36.76;101879.50;5060221;28;20028;-68
2023/01/31 05:54:35;;;;;;;1.33;0.90;;;;;;;18.81;36.73;101866.44;5058381;28;20040;-68
2023/01/31 05:57:01;;;;;;;2.15;1.30;;;;;;;18.85;36.78;101867.81;5059607;28;20112;-68
2023/01/31 05:59:29;;;;;;;1.13;1.02;;;;;;;18.87;36.73;101863.22;5060259;28;20093;-68
2023/01/31 06:01:54;;;;;;;1.33;1.13;;;;;;;18.82;36.92;101868.94;5061375;28;20048;-68
2023/01/31 06:04:20;;;;;;;2.00;1.10;;;;;;;18.84;36.82;101850.31;5054180;28;20047;-68
2023/01/31 06:06:45;;;;;;;1.23;0.93;;;;;;;18.87;36.81;101844.75;5061688;28;20101;-68
2023/01/31 06:09:11;;;;;;;1.55;0.85;;;;;;;18.83;36.79;101852.13;5061641;28;20055;-68
2023/01/31 06:11:36;;;;;;;1.10;0.98;;;;;;;18.85;36.67;101842.28;5060941;28;20044;-68
2023/01/31 06:14:02;;;;;;;0.85;0.75;;;;;;;18.80;36.73;101839.22;5058322;28;20522;-68
2023/01/31 06:16:27;;;;;;;1.45;1.00;;;;;;;18.84;36.71;101845.03;5060794;28;20040;-68
2023/01/31 06:18:54;;;;;;;1.48;0.90;;;;;;;18.85;36.98;101841.41;5058902;28;20120;-68
2023/01/31 06:21:20;;;;;;;2.00;1.17;;;;;;;18.84;36.76;101839.75;5061792;28;20040;-68
2023/01/31 06:23:46;;;;;;;0.95;0.70;;;;;;;18.84;37.10;101832.66;5057809;28;20380;-68
2023/01/31 06:26:12;;;;;;;1.27;1.15;;;;;;;18.82;36.88;101834.63;5060667;28;20032;-68
2023/01/31 06:28:38;;;;;;;1.85;1.13;;;;;;;18.87;36.85;101823.66;5056715;28;20039;-68
2023/01/31 06:31:08;;;;;;;2.17;1.23;;;;;;;18.87;36.94;101826.28;5060661;28;20048;-68
2023/01/31 06:33:34;;;;;;;1.30;1.05;;;;;;;19.24;36.15;101826.97;5060847;28;20089;-68
2023/01/31 06:36:00;;;;;;;0.65;0.60;;;;;;;20.60;33.82;101817.59;5053176;28;20032;-68
2023/01/31 06:38:26;;;;;;;1.85;0.90;;;;;;;21.49;32.47;101806.31;5058105;28;20036;-68
2023/01/31 06:40:52;;;;;;;1.98;1.02;;;;;;;21.54;32.49;101801.31;5061072;28;20509;-68
2023/01/31 06:43:17;;;;;;;2.13;1.15;;;;;;;21.62;32.25;101809.28;5059516;28;20036;-68
2023/01/31 06:45:43;;;;;;;1.48;1.00;;;;;;;21.59;32.11;101815.75;5060414;28;20043;-68
2023/01/31 06:48:12;;;;;;;1.75;1.23;;;;;;;21.79;31.94;101810.09;5062338;28;20044;-68
2023/01/31 06:50:37;;;;;;;1.33;0.98;;;;;;;21.85;32.37;101807.56;5054592;28;20041;-68
2023/01/31 06:53:03;;;;;;;2.05;1.02;;;;;;;22.19;31.75;101794.06;5062437;28;20048;-68
2023/01/31 06:55:28;;;;;;;2.05;1.23;;;;;;;22.26;31.50;101800.38;5059730;28;20067;-68
2023/01/31 06:57:54;;;;;;;2.53;1.23;;;;;;;22.15;32.00;101803.38;5060472;28;20086;-67
2023/01/31 07:00:21;;;;;;;1.63;1.00;;;;;;;22.10;31.69;101784.50;5057523;28;20398;-68
2023/01/31 07:02:47;;;;;;;2.03;0.90;;;;;;;22.03;32.13;101786.13;5057126;28;20037;-68
2023/01/31 07:05:13;;;;;;;1.65;1.13;;;;;;;21.90;32.17;101775.25;5059278;28;20486;-68
2023/01/31 07:07:39;;;;;;;1.55;1.00;;;;;;;21.81;32.16;101769.16;5060130;28;20624;-68
2023/01/31 07:10:05;;;;;;;2.30;1.27;;;;;;;21.71;32.41;101753.41;5056695;28;20037;-68
2023/01/31 07:12:31;;;;;;;1.05;0.93;;;;;;;21.68;32.31;101747.63;5056523;28;20072;-68
2023/01/31 07:14:56;;;;;;;1.33;0.82;;;;;;;21.57;32.83;101753.31;5055795;28;21502;-68
2023/01/31 07:17:22;;;;;;;2.38;1.27;;;;;;;21.49;32.98;101748.84;5056747;28;20036;-68
2023/01/31 07:19:48;;;;;;;1.73;1.05;;;;;;;21.42;32.79;101748.69;5056471;28;20893;-68
2023/01/31 07:22:13;;;;;;;2.55;1.17;;;;;;;21.42;32.95;101758.47;5059858;28;20037;-68
2023/01/31 07:24:39;;;;;;;1.58;1.30;;;;;;;21.32;33.29;101761.28;5057310;28;21934;-68
2023/01/31 07:27:04;;;;;;;2.35;1.27;;;;;;;21.24;33.24;101763.94;5057283;28;20048;-68
2023/01/31 07:29:30;;;;;;;1.75;1.30;;;;;;;21.12;33.41;101773.16;5055884;28;20048;-68
2023/01/31 07:31:56;;;;;;;1.50;1.17;;;;;;;21.13;33.46;101770.34;5056097;28;20045;-68
2023/01/31 07:34:22;;;;;;;1.38;1.10;;;;;;;20.98;33.67;101764.06;5059487;28;20047;-68
2023/01/31 07:36:49;;;;;;;1.70;1.17;;;;;;;20.83;34.02;101749.84;5059315;28;20032;-68
2023/01/31 07:39:14;;;;;;;2.28;1.20;;;;;;;20.84;34.22;101753.31;5057452;28;20064;-67
2023/01/31 07:41:40;;;;;;;1.52;1.08;;;;;;;20.66;34.36;101730.47;5054640;28;20036;-68
2023/01/31 07:44:07;;;;;;;1.60;1.30;;;;;;;20.50;34.60;101751.59;5056086;28;20131;-68
2023/01/31 07:46:36;;;;;;;1.92;1.30;;;;;;;20.31;34.97;101742.09;5049806;28;20084;-66
2023/01/31 07:49:02;;;;;;;2.45;1.42;;;;;;;20.57;34.50;101742.00;5055844;28;20040;-66
2023/01/31 07:51:27;;;;;;;2.35;1.45;;;;;;;21.12;33.46;101746.69;5054715;28;20060;-68
2023/01/31 07:53:53;;;;;;;2.50;1.42;;;;;;;21.33;33.18;101741.72;5055366;28;20040;-68
2023/01/31 07:56:20;;;;;;;1.38;0.93;;;;;;;21.30;33.15;101733.28;5057717;28;20036;-68
2023/01/31 07:58:47;;;;;;;2.10;1.33;;;;;;;21.28;33.14;101730.81;5057490;28;20036;-68
2023/01/31 08:04:03;;;;;;;3.00;1.10;;;;;;;21.03;34.09;101721.22;5054332;28;20051;-68
2023/01/31 08:06:30;;;;;;;2.15;1.23;;;;;;;21.10;33.63;101727.50;5052846;28;20500;-66
2023/01/31 08:08:56;;;;;;;1.85;1.17;;;;;;;21.07;33.71;101719.88;5054903;28;20048;-67
2023/01/31 08:11:21;;;;;;;2.78;1.30;;;;;;;21.17;33.72;101719.69;5056249;28;20125;-67
2023/01/31 08:13:47;;;;;;;3.85;1.90;;;;;;;21.11;33.71;101719.38;5056654;28;20086;-67
2023/01/31 08:16:13;;;;;;;1.17;0.93;;;;;;;21.13;33.43;101700.66;5056384;28;20068;-67
2023/01/31 08:18:39;;;;;;;2.15;1.17;;;;;;;20.98;33.88;101702.31;5057679;28;20087;-66
2023/01/31 08:21:05;;;;;;;1.60;1.00;;;;;;;20.87;34.01;101707.97;5055007;28;20768;-66
2023/01/31 08:23:31;;;;;;;2.55;1.40;;;;;;;20.80;34.06;101708.63;5052843;28;20489;-67
2023/01/31 08:26:18;;;;;;;1.73;1.10;;;;;;;20.74;34.25;101706.63;5055919;28;20033;-67
2023/01/31 08:28:45;;;;;;;2.03;1.08;;;;;;;21.25;33.40;101706.50;5058438;28;20094;-67
2023/01/31 08:31:20;;;;;;;1.33;1.05;;;;;;;21.86;32.55;101686.44;5059236;28;20033;-67
2023/01/31 08:33:46;;;;;;;1.38;0.93;;;;;;;22.14;32.17;101710.72;5061517;28;20075;-67
2023/01/31 08:36:16;;;;;;;1.42;1.10;;;;;;;22.19;32.15;101701.22;5056471;28;20116;-67
2023/01/31 08:38:42;;;;;;;1.85;1.02;;;;;;;22.08;31.79;101695.47;5058063;28;20040;-67
2023/01/31 08:41:07;;;;;;;2.17;1.08;;;;;;;22.15;32.12;101697.28;5058662;28;20051;-67
2023/01/31 08:43:33;;;;;;;2.17;1.27;;;;;;;22.05;32.17;101694.00;5058602;28;20048;-66
2023/01/31 08:45:58;;;;;;;2.50;1.15;;;;;;;22.01;32.21;101685.53;5058408;28;20075;-67
2023/01/31 08:48:24;;;;;;;2.05;1.15;;;;;;;21.96;32.11;101695.03;5057940;28;20049;-67
2023/01/31 08:50:49;;;;;;;1.58;1.13;;;;;;;21.88;32.49;101687.91;5057501;28;20032;-67
2023/01/31 08:53:14;;;;;;;1.38;0.90;;;;;;;21.81;32.40;101696.72;5058787;28;20036;-67
2023/01/31 08:55:40;;;;;;;1.88;1.02;;;;;;;21.77;32.34;101685.66;5063915;28;20067;-67
2023/01/31 08:58:06;;;;;;;2.45;1.38;;;;;;;21.69;32.59;101689.13;5058241;28;20090;-67
2023/01/31 09:00:31;;;;;;;1.70;1.10;;;;;;;21.65;32.64;101676.41;5056554;28;20037;-67
2023/01/31 09:02:59;;;;;;;1.23;0.80;;;;;;;21.57;33.01;101681.75;5055877;28;20442;-67
2023/01/31 09:05:26;;;;;;;1.70;1.50;;;;;;;21.59;32.73;101677.09;5058668;28;20191;-66
2023/01/31 09:07:52;;;;;;;1.23;0.90;;;;;;;21.45;33.07;101672.50;5057616;28;20675;-66
2023/01/31 09:10:19;;;;;;;2.50;1.05;;;;;;;21.38;33.20;101662.59;5059116;28;20044;-67
2023/01/31 09:12:47;;;;;;;1.17;0.75;;;;;;;21.21;33.62;101676.00;5059437;28;20059;-66
2023/01/31 09:15:13;;;;;;;0.98;0.82;;;;;;;21.00;33.83;101666.75;5055463;28;20048;-66
2023/01/31 09:17:39;;;;;;;0.82;0.73;;;;;;;21.18;33.72;101660.44;5055552;28;20068;-66
2023/01/31 09:20:08;;;;;;;1.10;0.88;;;;;;;21.06;33.61;101655.50;5055779;28;20039;-66
2023/01/31 09:22:33;;;;;;;1.00;0.90;;;;;;;21.11;33.53;101661.13;5056920;28;20530;-67
2023/01/31 09:24:59;;;;;;;1.70;1.08;;;;;;;20.85;34.01;101665.78;5056250;28;20048;-66
2023/01/31 09:27:26;;;;;;;1.80;0.90;;;;;;;20.86;34.04;101648.91;5058714;28;20036;-66
2023/01/31 09:29:52;;;;;;;1.13;0.82;;;;;;;20.87;34.20;101660.31;5055073;28;20028;-66
2023/01/31 09:32:18;;;;;;;1.30;1.17;;;;;;;20.79;34.02;101647.91;5058223;28;20378;-66
2023/01/31 09:34:45;;;;;;;1.38;1.10;;;;;;;20.60;34.46;101635.00;5057606;28;20858;-66
2023/01/31 09:37:11;;;;;;;1.67;1.10;;;;;;;20.68;34.36;101641.13;5054099;28;20422;-66
2023/01/31 09:39:37;;;;;;;1.40;0.82;;;;;;;20.56;34.54;101633.69;5055394;28;20049;-66
2023/01/31 09:42:24;;;;;;;1.40;0.90;;;;;;;20.49;34.68;101630.88;5057155;28;20041;-66
2023/01/31 09:45:02;;;;;;;1.98;0.93;;;;;;;20.96;33.98;101631.00;5005670;28;26350;-66
2023/01/31 09:47:32;;;;;;;0.70;0.68;;;;;;;21.32;33.71;101627.97;5057660;28;20025;-68
2023/01/31 09:50:04;;;;;;;0.93;0.60;;;;;;;21.52;33.52;101631.88;5056114;28;20036;-64
2023/01/31 09:52:31;;;;;;;0.77;0.70;;;;;;;21.61;33.31;101625.56;5062659;28;20359;-64
2023/01/31 09:54:57;;;;;;;0.98;0.80;;;;;;;21.72;33.17;101624.34;5056415;28;20777;-65
2023/01/31 09:57:39;;;;;;;1.30;0.90;;;;;;;21.81;33.40;101612.72;5052015;28;20048;-65
2023/01/31 10:00:27;;;;;;;1.60;0.82;;;;;;;21.85;33.39;101618.50;5040314;28;20048;-65
2023/01/31 10:03:18;;;;;;;1.15;0.80;;;;;;;21.92;33.33;101624.78;5041754;28;20056;-67
2023/01/31 10:06:01;;;;;;;0.70;0.70;;;;;;;21.94;33.51;101620.94;5058888;28;21852;-66
2023/01/31 10:08:56;;;;;;;0.80;0.65;;;;;;;22.00;33.05;101606.16;5056012;28;20677;-67
2023/01/31 10:11:34;;;;;;;1.67;1.10;;;;;;;22.02;32.91;101607.63;5058192;28;20301;-65
2023/01/31 10:14:17;;;;;;;0.80;0.80;;;;;;;22.05;33.01;101617.06;5054620;28;20055;-65
2023/01/31 10:17:04;;;;;;;1.13;0.80;;;;;;;22.02;33.21;101628.84;5056320;28;20039;-65
2023/01/31 10:19:44;;;;;;;1.10;0.98;;;;;;;22.02;33.28;101615.56;5056295;28;20094;-65
2023/01/31 10:22:16;;;;;;;0.85;0.82;;;;;;;22.10;33.08;101628.00;5061397;28;20683;-66
2023/01/31 10:24:48;;;;;;;1.02;0.80;;;;;;;22.15;33.31;101623.00;5056386;28;20479;-65
2023/01/31 10:27:36;;;;;;;1.15;1.00;;;;;;;22.16;33.25;101637.09;5055123;28;20431;-66
2023/01/31 10:30:06;;;;;;;1.23;0.95;;;;;;;22.19;33.29;101626.13;5053257;28;20050;-66
2023/01/31 10:32:44;;;;;;;1.10;0.90;;;;;;;22.10;33.21;101624.53;5052659;28;20378;-66
2023/01/31 10:35:29;;;;;;;1.33;1.13;;;;;;;22.23;33.42;101632.72;5027093;28;20040;-63
2023/01/31 10:38:04;;;;;;;0.68;0.65;;;;;;;22.31;32.94;101630.03;5053229;28;20086;-65
2023/01/31 10:40:36;;;;;;;1.73;1.00;;;;;;;22.26;33.04;101640.31;5055572;28;20106;-64
2023/01/31 10:43:40;;;;;;;1.23;0.80;;;;;;;22.27;33.12;101647.31;5054946;28;20036;-63
2023/01/31 10:46:11;;;;;;;1.55;1.05;;;;;;;22.38;32.93;101636.25;5001035;28;20097;-63
2023/01/31 10:48:39;;;;;;;1.35;1.00;;;;;;;22.40;33.24;101642.22;5051885;28;20052;-63
2023/01/31 10:51:26;;;;;;;0.90;0.60;;;;;;;22.43;33.06;101633.91;5035962;28;20101;-63
2023/01/31 10:54:18;;;;;;;0.98;0.80;;;;;;;22.39;32.94;101635.25;5054994;28;20048;-64
2023/01/31 10:56:47;;;;;;;0.80;0.77;;;;;;;22.41;32.92;101627.94;5057255;28;20036;-64
2023/01/31 10:59:24;;;;;;;1.02;0.82;;;;;;;22.36;33.25;101626.81;5055546;28;20778;-63
2023/01/31 11:01:49;;;;;;;0.77;0.70;;;;;;;22.31;33.29;101619.41;5053723;28;20040;-63
2023/01/31 11:04:30;;;;;;;1.25;1.08;;;;;;;22.02;33.71;101620.06;5052436;28;20044;-64
2023/01/31 11:06:58;;;;;;;0.82;0.80;;;;;;;21.87;33.94;101619.13;5028711;28;20091;-63
2023/01/31 11:09:29;;;;;;;1.38;0.95;;;;;;;21.83;34.02;101600.09;5052777;28;20041;-63
2023/01/31 11:12:05;;;;;;;1.52;0.80;;;;;;;21.77;33.97;101598.16;5055033;28;20150;-64
2023/01/31 11:14:31;;;;;;;0.65;0.43;;;;;;;21.73;34.25;101591.56;5053826;28;20044;-64
2023/01/31 11:17:01;;;;;;;0.82;0.60;;;;;;;21.72;34.17;101592.53;5054937;28;20107;-66
2023/01/31 11:19:42;;;;;;;1.65;1.13;;;;;;;21.68;34.12;101592.06;5055647;28;20029;-63
2023/01/31 11:22:29;;;;;;;0.75;0.68;;;;;;;21.65;34.17;101595.06;5039242;28;21094;-63
2023/01/31 11:24:56;;;;;;;1.05;0.88;;;;;;;21.63;34.10;101578.50;5042599;28;20052;-63
2023/01/31 11:27:36;;;;;;;1.65;0.80;;;;;;;21.63;34.26;101585.63;5059857;28;20044;-65
2023/01/31 11:30:03;;;;;;;1.35;1.10;;;;;;;21.62;34.18;101589.28;5056275;28;20082;-64
2023/01/31 11:32:34;;;;;;;1.02;0.80;;;;;;;21.60;34.18;101584.16;5055978;28;20048;-63
2023/01/31 11:35:03;;;;;;;0.88;0.80;;;;;;;21.60;34.34;101584.16;5057875;28;20051;-63
2023/01/31 11:37:29;;;;;;;0.82;0.80;;;;;;;21.58;34.21;101583.50;5055802;28;20035;-64
2023/01/31 11:40:00;;;;;;;1.05;0.85;;;;;;;21.57;34.05;101589.00;5043709;28;20067;-64
2023/01/31 11:42:25;;;;;;;1.65;0.95;;;;;;;21.55;33.89;101594.47;5042502;28;20048;-63
2023/01/31 11:45:15;;;;;;;1.27;0.70;;;;;;;21.55;34.19;101602.41;5056681;28;20044;-64
2023/01/31 11:47:51;;;;;;;0.90;0.68;;;;;;;21.55;34.21;101588.34;5055907;28;20526;-63